Time;durP1;ratioP1;P1;durP2;ratioP2;P2;SDS_P1;SDS_P2;PMS_P1;PMS_P2;Temp;Humidity;BMP_temperature;BMP_pressure;BME280_temperature;BME280_humidity;BME280_pressure;Samples;Min_cycle;Max_cycle;Signal;HPM_P1;HPM_P2
2023/03/28 00:01:35;;;;;;;;;33.33;25.00;;;;;4.48;65.04;102481.75;5138835;27;45430;-65
2023/03/28 00:04:01;;;;;;;;;29.67;24.00;;;;;4.42;64.94;102492.03;5139377;27;45179;-65
2023/03/28 00:06:27;;;;;;;;;39.67;32.33;;;;;4.24;66.60;102474.09;5138462;27;46413;-65
2023/03/28 00:08:54;;;;;;;;;25.67;21.33;;;;;4.24;66.89;102470.56;5120035;27;45379;-65
2023/03/28 00:11:21;;;;;;;;;28.00;24.00;;;;;4.39;67.02;102497.16;5138720;27;45470;-65
2023/03/28 00:13:47;;;;;;;;;43.00;28.00;;;;;4.40;67.12;102493.72;5139021;27;45550;-65
2023/03/28 00:16:13;;;;;;;;;29.33;24.00;;;;;4.37;65.77;102498.81;5138523;27;46628;-65
2023/03/28 00:18:39;;;;;;;;;28.33;21.67;;;;;4.28;66.26;102478.53;5138641;27;45288;-65
2023/03/28 00:21:22;;;;;;;;;27.00;22.33;;;;;4.19;65.97;102467.84;5141566;27;45329;-65
2023/03/28 00:24:00;;;;;;;;;28.67;25.67;;;;;4.27;67.03;102483.72;5142902;27;45182;-65
2023/03/28 00:26:27;;;;;;;;;25.33;20.00;;;;;4.25;67.07;102469.75;5142393;27;46173;-65
2023/03/28 00:28:54;;;;;;;;;20.33;20.33;;;;;4.24;67.17;102481.00;5142458;27;45327;-65
2023/03/28 00:31:21;;;;;;;;;30.33;24.33;;;;;4.27;67.65;102483.72;5141258;27;45365;-65
2023/03/28 00:33:47;;;;;;;;;21.33;18.00;;;;;4.25;67.50;102473.22;5142716;27;45284;-65
2023/03/28 00:36:17;;;;;;;;;27.33;19.00;;;;;4.29;67.37;102480.31;5141274;27;45367;-65
2023/03/28 00:38:43;;;;;;;;;25.67;21.33;;;;;4.19;67.32;102460.00;5142239;27;45442;-65
2023/03/28 00:41:09;;;;;;;;;25.33;20.67;;;;;4.27;67.00;102478.50;5142221;27;45398;-65
2023/03/28 00:43:40;;;;;;;;;26.00;20.33;;;;;4.14;67.53;102459.88;5142377;27;45367;-65
2023/03/28 00:46:37;;;;;;;;;22.33;20.00;;;;;4.28;67.28;102480.28;5141793;27;46544;-65
2023/03/28 00:49:20;;;;;;;;;25.67;21.00;;;;;4.24;66.91;102478.41;5140454;27;45417;-65
2023/03/28 00:51:55;;;;;;;;;19.00;18.00;;;;;4.19;67.32;102462.63;5142050;27;45351;-66
2023/03/28 00:54:22;;;;;;;;;24.00;20.33;;;;;4.18;67.24;102469.56;5141942;27;45393;-65
2023/03/28 00:56:52;;;;;;;;;19.00;13.67;;;;;4.17;67.10;102464.31;5141376;27;46374;-65
2023/03/28 00:59:22;;;;;;;;;21.00;17.00;;;;;4.09;67.26;102457.97;5140721;27;45364;-65
2023/03/28 01:01:48;;;;;;;;;25.33;18.67;;;;;4.13;67.42;102470.25;5140806;27;45477;-65
2023/03/28 01:04:19;;;;;;;;;20.67;17.33;;;;;4.17;68.36;102470.41;5141780;27;45421;-65
2023/03/28 01:06:47;;;;;;;;;19.00;16.00;;;;;4.24;67.55;102479.31;5141537;27;45392;-65
2023/03/28 01:09:15;;;;;;;;;17.00;16.00;;;;;4.12;66.96;102455.44;5141394;27;45499;-65
2023/03/28 01:11:44;;;;;;;;;12.67;12.33;;;;;4.19;66.97;102479.13;5141536;27;45461;-65
2023/03/28 01:14:14;;;;;;;;;20.33;17.00;;;;;4.20;66.95;102469.63;5141905;27;45347;-65
2023/03/28 01:16:41;;;;;;;;;14.67;13.67;;;;;4.19;68.01;102473.91;5140857;27;47306;-65
2023/03/28 01:19:37;;;;;;;;;15.00;15.00;;;;;4.22;67.53;102470.53;5141126;27;45749;-65
2023/03/28 01:22:21;;;;;;;;;15.33;11.00;;;;;4.23;67.58;102471.44;5056701;28;45452;-65
2023/03/28 01:25:05;;;;;;;;;18.67;13.67;;;;;4.25;66.59;102465.41;5056960;28;45539;-65
2023/03/28 01:27:50;;;;;;;;;21.00;13.33;;;;;4.22;66.74;102464.44;5056801;28;46083;-65
2023/03/28 01:30:26;;;;;;;;;12.67;12.67;;;;;4.08;67.13;102444.06;5056850;28;45499;-65
2023/03/28 01:33:01;;;;;;;;;16.00;13.00;;;;;4.16;67.19;102465.13;5056570;28;45726;-65
2023/03/28 01:35:41;;;;;;;;;18.67;16.67;;;;;4.18;67.75;102460.84;5056804;28;45438;-65
2023/03/28 01:38:12;;;;;;;;;16.67;15.67;;;;;4.17;66.81;102459.09;5056522;28;45504;-66
2023/03/28 01:40:49;;;;;;;;;11.33;6.33;;;;;4.11;66.80;102462.38;5056479;28;45565;-66
2023/03/28 01:43:33;;;;;;;;;16.33;12.33;;;;;4.12;68.09;102461.53;5057041;28;45483;-67
2023/03/28 01:46:15;;;;;;;;;19.00;13.33;;;;;4.13;66.61;102460.69;5057210;28;45389;-67
2023/03/28 01:48:52;;;;;;;;;16.00;11.00;;;;;4.11;67.08;102462.38;5056435;28;45659;-67
2023/03/28 01:51:51;;;;;;;;;12.33;11.67;;;;;4.12;67.30;102456.31;5056565;28;45328;-66
2023/03/28 01:54:32;;;;;;;;;7.67;6.67;;;;;4.14;66.50;102461.59;5054957;28;45457;-66
2023/03/28 01:57:12;;;;;;;;;9.33;9.33;;;;;4.13;66.52;102452.88;5056834;28;45972;-66
2023/03/28 01:59:47;;;;;;;;;12.33;11.67;;;;;4.03;66.47;102440.41;5104338;27;45484;-66
2023/03/28 02:02:20;;;;;;;;;12.33;10.67;;;;;4.01;66.73;102431.66;5119785;27;45254;-65
2023/03/28 02:04:48;;;;;;;;;16.67;8.33;;;;;4.07;67.57;102441.41;5120542;27;45209;-65
2023/03/28 02:07:19;;;;;;;;;12.00;9.33;;;;;4.04;67.26;102433.44;5120131;27;45379;-66
2023/03/28 02:09:47;;;;;;;;;16.00;9.00;;;;;4.13;67.29;102437.25;5119828;27;46138;-65
2023/03/28 02:12:21;;;;;;;;;12.33;11.00;;;;;3.77;66.21;102380.50;5120008;27;45314;-66
2023/03/28 02:15:03;;;;;;;;;;;;;;;;;;;;;
2023/03/28 02:17:31;;;;;;;;;13.67;12.00;;;;;3.95;67.61;102414.09;5118798;27;63365;-66
2023/03/28 02:20:07;;;;;;;;;11.00;7.33;;;;;3.95;67.53;102403.69;5119735;27;45534;-66
2023/03/28 02:22:42;;;;;;;;;10.00;9.33;;;;;4.04;66.65;102421.31;5120018;27;45785;-66
2023/03/28 02:25:08;;;;;;;;;11.00;11.00;;;;;3.98;67.07;102414.19;5120172;27;45426;-66
2023/03/28 02:27:36;;;;;;;;;6.00;3.33;;;;;3.97;67.17;102408.94;5118471;27;45353;-66
2023/03/28 02:30:02;;;;;;;;;18.67;10.00;;;;;3.99;67.47;102415.97;5119716;27;47279;-66
2023/03/28 02:32:32;;;;;;;;;12.00;8.00;;;;;3.91;67.72;102391.38;5119327;27;45351;-66
2023/03/28 02:35:00;;;;;;;;;14.33;9.33;;;;;3.98;68.11;102395.09;5119748;27;45272;-66
2023/03/28 02:37:44;;;;;;;;;8.67;8.33;;;;;4.01;67.72;102403.88;5118749;27;45410;-66
2023/03/28 02:40:10;;;;;;;;;14.00;8.33;;;;;3.99;67.17;102397.72;5119477;27;45299;-66
2023/03/28 02:42:53;;;;;;;;;11.33;6.00;;;;;3.97;68.04;102395.91;5099794;27;45505;-66
2023/03/28 02:45:39;;;;;;;;;12.33;7.67;;;;;3.96;68.03;102391.53;5118431;27;45574;-66
2023/03/28 02:48:46;;;;;;;;;11.33;10.00;;;;;3.95;66.73;102385.44;5119239;27;45465;-66
2023/03/28 02:51:23;;;;;;;;;15.00;10.33;;;;;3.91;66.21;102377.47;5095574;27;46409;-66
2023/03/28 02:54:04;;;;;;;;;8.33;7.33;;;;;3.76;66.48;102355.31;5119137;27;45191;-66
2023/03/28 02:56:49;;;;;;;;;15.67;8.00;;;;;3.82;67.22;102365.06;5119391;27;45344;-66
2023/03/28 02:59:37;;;;;;;;;15.33;12.00;;;;;3.50;67.21;102302.41;5119356;27;45467;-66
2023/03/28 03:02:03;;;;;;;;;7.67;7.00;;;;;3.74;67.86;102337.88;5118757;27;45578;-66
2023/03/28 03:04:28;;;;;;;;;11.33;9.33;;;;;3.78;67.78;102351.03;5119049;27;45427;-66
2023/03/28 03:06:54;;;;;;;;;11.67;11.00;;;;;3.83;68.38;102353.78;5119019;27;45545;-66
2023/03/28 03:09:19;;;;;;;;;10.67;10.67;;;;;3.84;68.27;102345.13;5119283;27;45423;-66
2023/03/28 03:11:45;;;;;;;;;6.33;6.33;;;;;3.86;68.38;102334.75;5118878;27;45720;-66
2023/03/28 03:14:11;;;;;;;;;18.67;13.00;;;;;3.93;68.57;102344.53;5118725;27;45207;-66
2023/03/28 03:16:37;;;;;;;;;15.33;12.33;;;;;3.91;68.08;102341.88;5117916;27;45411;-66
2023/03/28 03:19:02;;;;;;;;;16.67;15.67;;;;;3.88;69.10;102330.47;5118781;27;45454;-65
2023/03/28 03:21:28;;;;;;;;;19.33;16.67;;;;;3.91;68.18;102335.78;5118818;27;46297;-66
2023/03/28 03:23:53;;;;;;;;;24.00;15.00;;;;;3.83;67.67;102326.03;5118824;27;45402;-66
2023/03/28 03:26:19;;;;;;;;;17.00;14.33;;;;;3.83;68.24;102319.91;5105726;27;45611;-65
2023/03/28 03:28:44;;;;;;;;;24.33;15.00;;;;;3.94;68.73;102326.31;5105349;27;45479;-65
2023/03/28 03:31:10;;;;;;;;;19.33;12.00;;;;;3.98;67.66;102324.72;5118539;27;46602;-65
2023/03/28 03:33:40;;;;;;;;;15.67;13.00;;;;;3.93;67.28;102326.28;5118803;27;45445;-66
2023/03/28 03:36:07;;;;;;;;;12.33;12.00;;;;;3.84;67.25;102314.75;5118738;27;45319;-66
2023/03/28 03:38:33;;;;;;;;;14.67;10.67;;;;;3.88;68.18;102320.94;5118689;27;45317;-65
2023/03/28 03:40:58;;;;;;;;;10.00;7.67;;;;;3.95;68.19;102322.00;5118733;27;45897;-65
2023/03/28 03:43:23;;;;;;;;;18.00;10.67;;;;;3.73;68.63;102284.00;5118455;27;45367;-66
2023/03/28 03:45:49;;;;;;;;;11.33;8.33;;;;;3.97;68.26;102321.22;5118627;27;45448;-66
2023/03/28 03:48:14;;;;;;;;;12.33;11.33;;;;;4.04;67.60;102327.50;5118597;27;45429;-66
2023/03/28 03:50:40;;;;;;;;;11.67;9.33;;;;;4.01;67.55;102317.00;5118177;27;45404;-66
2023/03/28 03:53:05;;;;;;;;;11.00;9.00;;;;;4.03;66.94;102314.44;5118547;27;45310;-66
2023/03/28 03:55:31;;;;;;;;;11.67;9.33;;;;;4.04;67.10;102322.28;5118405;27;45404;-66
2023/03/28 03:57:56;;;;;;;;;14.67;11.00;;;;;3.99;67.75;102308.22;5118342;27;45315;-66
2023/03/28 04:00:22;;;;;;;;;9.33;9.33;;;;;3.89;66.72;102304.44;5117985;27;47155;-66
2023/03/28 04:02:47;;;;;;;;;19.00;11.33;;;;;4.02;67.93;102323.94;5117831;27;45494;-66
2023/03/28 04:05:13;;;;;;;;;13.33;7.67;;;;;4.01;68.02;102328.28;5118564;27;45249;-66
2023/03/28 04:07:38;;;;;;;;;14.33;11.00;;;;;4.02;67.00;102323.94;5118542;27;45405;-66
2023/03/28 04:10:04;;;;;;;;;12.33;9.33;;;;;3.97;66.79;102316.00;5117841;27;46423;-66
2023/03/28 04:12:29;;;;;;;;;16.00;11.67;;;;;3.76;67.56;102289.28;5118420;27;45245;-66
2023/03/28 04:14:55;;;;;;;;;11.00;10.33;;;;;3.89;68.19;102300.97;5118081;27;45289;-66
2023/03/28 04:17:22;;;;;;;;;14.33;11.33;;;;;3.92;68.05;102303.66;5118394;27;45291;-66
2023/03/28 04:19:48;;;;;;;;;12.00;9.33;;;;;3.93;67.79;102303.69;5117823;27;46529;-66
2023/03/28 04:22:17;;;;;;;;;12.33;9.33;;;;;3.98;68.11;102316.91;5118228;27;45387;-66
2023/03/28 04:24:43;;;;;;;;;11.33;8.67;;;;;3.97;67.69;102317.72;5118140;27;45541;-65
2023/03/28 04:27:09;;;;;;;;;17.67;13.00;;;;;3.97;66.85;102310.78;5118081;27;45231;-66
2023/03/28 04:29:36;;;;;;;;;13.33;13.33;;;;;3.96;67.69;102318.56;5117706;27;45735;-66
2023/03/28 04:32:04;;;;;;;;;13.00;11.67;;;;;3.98;67.08;102309.09;5117654;27;45299;-65
2023/03/28 04:34:30;;;;;;;;;11.00;9.00;;;;;3.98;67.21;102309.09;5117986;27;45460;-66
2023/03/28 04:37:00;;;;;;;;;11.00;8.00;;;;;3.87;67.27;102293.09;5118153;27;45386;-66
2023/03/28 04:39:30;;;;;;;;;13.67;9.67;;;;;3.97;68.33;102307.31;5117434;27;45949;-66
2023/03/28 04:41:55;;;;;;;;;11.67;8.00;;;;;3.91;68.33;102292.38;5117717;27;45344;-66
2023/03/28 04:44:22;;;;;;;;;12.00;12.00;;;;;3.96;67.69;102298.59;5117980;27;45345;-66
2023/03/28 04:46:49;;;;;;;;;11.00;8.33;;;;;3.97;67.26;102305.56;5117961;27;45436;-66
2023/03/28 04:49:15;;;;;;;;;15.00;8.00;;;;;3.79;67.29;102266.84;5117527;27;46177;-66
2023/03/28 04:51:40;;;;;;;;;10.00;8.00;;;;;4.07;67.37;102311.94;5117748;27;45384;-66
2023/03/28 04:54:06;;;;;;;;;12.33;3.00;;;;;4.02;67.21;102287.47;5117713;27;45336;-66
2023/03/28 04:56:32;;;;;;;;;9.33;9.00;;;;;3.98;67.21;102288.22;5118214;27;45406;-66
2023/03/28 04:58:57;;;;;;;;;11.33;7.67;;;;;4.09;66.75;102296.34;5117053;27;46505;-66
2023/03/28 05:01:24;;;;;;;;;11.33;8.00;;;;;3.97;67.66;102274.31;5117566;27;45775;-66
2023/03/28 05:03:50;;;;;;;;;13.33;10.67;;;;;4.02;67.53;102295.28;5098836;27;45504;-66
2023/03/28 05:06:15;;;;;;;;;7.67;7.67;;;;;4.04;67.49;102280.59;5119108;27;45425;-66
2023/03/28 05:08:42;;;;;;;;;10.67;8.00;;;;;4.03;67.59;102277.94;5120735;27;45409;-66
2023/03/28 05:11:08;;;;;;;;;12.33;10.00;;;;;3.97;67.77;102276.03;5120889;27;45370;-66
2023/03/28 05:13:33;;;;;;;;;10.67;10.33;;;;;4.03;67.73;102299.66;5120932;27;45276;-66
2023/03/28 05:15:59;;;;;;;;;11.67;7.00;;;;;4.02;66.98;102305.69;5121413;27;45236;-66
2023/03/28 05:18:24;;;;;;;;;9.00;9.00;;;;;3.86;67.34;102280.91;5120637;27;46423;-66
2023/03/28 05:20:50;;;;;;;;;12.67;9.67;;;;;3.91;66.94;102308.00;5121057;27;45345;-67
2023/03/28 05:23:15;;;;;;;;;19.00;17.00;;;;;3.89;67.19;102311.41;5121096;27;45851;-65
2023/03/28 05:25:41;;;;;;;;;8.00;8.00;;;;;3.88;67.37;102310.53;5121002;27;45271;-65
2023/03/28 05:28:06;;;;;;;;;21.67;15.33;;;;;3.98;67.83;102322.13;5120930;27;45549;-65
2023/03/28 05:30:32;;;;;;;;;9.00;8.00;;;;;3.97;67.15;102321.22;5120754;27;45482;-65
2023/03/28 05:32:58;;;;;;;;;11.33;8.33;;;;;3.98;67.66;102319.50;5121038;27;45244;-65
2023/03/28 05:35:24;;;;;;;;;12.00;10.67;;;;;3.98;68.07;102314.28;5120863;27;45318;-65
2023/03/28 05:37:50;;;;;;;;;11.00;8.67;;;;;3.97;67.02;102313.38;5120362;27;45569;-65
2023/03/28 05:40:15;;;;;;;;;12.00;9.33;;;;;3.99;68.36;102316.03;5120791;27;45481;-65
2023/03/28 05:42:41;;;;;;;;;6.00;6.00;;;;;4.00;67.12;102304.78;5120705;27;45396;-65
2023/03/28 05:45:07;;;;;;;;;7.33;7.33;;;;;4.05;66.71;102316.22;5121115;27;45395;-65
2023/03/28 05:47:33;;;;;;;;;12.67;8.00;;;;;4.06;67.04;102296.25;5120464;27;46313;-65
2023/03/28 05:49:59;;;;;;;;;11.00;7.67;;;;;4.13;66.81;102309.50;5119969;27;45425;-65
2023/03/28 05:52:24;;;;;;;;;19.67;15.67;;;;;4.15;66.81;102315.69;5120493;27;45251;-65
2023/03/28 05:54:50;;;;;;;;;12.33;10.67;;;;;4.17;67.68;102307.91;5120696;27;45211;-65
2023/03/28 05:57:16;;;;;;;;;7.67;7.67;;;;;4.23;66.91;102317.63;5120437;27;45938;-65
2023/03/28 05:59:41;;;;;;;;;12.00;8.00;;;;;4.21;66.64;102308.84;5120407;27;45186;-67
2023/03/28 06:02:15;;;;;;;;;8.33;8.33;;;;;4.31;67.25;102327.44;5120503;27;45421;-65
2023/03/28 06:04:42;;;;;;;;;7.00;7.00;;;;;4.33;66.65;102320.53;5120474;27;45256;-65
2023/03/28 06:07:08;;;;;;;;;17.67;12.33;;;;;4.34;67.11;102318.78;5120119;27;46014;-65
2023/03/28 06:09:34;;;;;;;;;12.00;8.67;;;;;4.42;67.02;102322.50;5120182;27;45382;-65
2023/03/28 06:12:01;;;;;;;;;16.00;11.00;;;;;4.44;67.28;102317.31;5120387;27;45589;-65
2023/03/28 06:14:27;;;;;;;;;16.67;13.67;;;;;4.55;66.88;102313.31;5120392;27;45532;-65
2023/03/28 06:16:53;;;;;;;;;16.67;11.67;;;;;4.54;66.32;102308.91;5119331;27;46715;-65
2023/03/28 06:19:19;;;;;;;;;20.00;12.33;;;;;4.48;66.31;102311.34;5118961;27;45342;-65
2023/03/28 06:21:44;;;;;;;;;18.67;13.67;;;;;4.51;66.97;102317.53;5120050;27;45305;-65
2023/03/28 06:24:10;;;;;;;;;18.00;12.33;;;;;4.54;66.73;102311.53;5120322;27;45331;-65
2023/03/28 06:26:35;;;;;;;;;17.67;13.67;;;;;4.56;66.48;102302.03;5119752;27;46619;-65
2023/03/28 06:29:02;;;;;;;;;20.33;14.33;;;;;4.61;66.74;102304.75;5119992;27;45211;-65
2023/03/28 06:31:27;;;;;;;;;37.33;29.00;;;;;4.60;66.47;102303.84;5119693;27;45501;-65
2023/03/28 06:33:55;;;;;;;;;20.67;14.67;;;;;4.65;66.60;102314.44;5119907;27;45402;-65
2023/03/28 06:36:20;;;;;;;;;13.00;12.00;;;;;4.59;66.09;102290.78;5119234;27;46513;-65
2023/03/28 06:38:46;;;;;;;;;14.00;12.67;;;;;4.68;66.81;102307.56;5119584;27;45374;-65
2023/03/28 06:41:11;;;;;;;;;18.33;14.67;;;;;4.77;66.33;102308.66;5119863;27;45398;-65
2023/03/28 06:43:37;;;;;;;;;23.67;14.33;;;;;4.79;65.91;102304.34;5119764;27;45295;-65
2023/03/28 06:46:03;;;;;;;;;18.67;14.33;;;;;4.79;66.56;102296.53;5118958;27;45396;-65
2023/03/28 06:48:30;;;;;;;;;20.00;14.00;;;;;4.86;67.02;102293.22;5118400;27;45400;-65
2023/03/28 06:50:59;;;;;;;;;24.00;18.67;;;;;4.90;66.02;102299.44;5119351;27;45298;-65
2023/03/28 06:53:25;;;;;;;;;22.00;17.33;;;;;4.90;66.47;102297.69;5119797;27;45422;-65
2023/03/28 06:55:52;;;;;;;;;15.33;11.67;;;;;4.89;66.09;102290.69;5119228;27;45620;-65
2023/03/28 06:58:18;;;;;;;;;16.00;13.00;;;;;4.94;66.30;102299.53;5119235;27;45309;-65
2023/03/28 07:00:44;;;;;;;;;12.00;10.00;;;;;4.94;65.89;102282.97;5119448;27;45311;-65
2023/03/28 07:03:10;;;;;;;;;24.67;22.33;;;;;5.02;66.34;102281.47;5119582;27;45231;-65
2023/03/28 07:05:39;;;;;;;;;21.33;19.00;;;;;5.12;66.91;102286.06;5119078;27;46641;-65
2023/03/28 07:08:06;;;;;;;;;15.33;12.33;;;;;5.20;66.07;102281.91;5118865;27;45284;-65
2023/03/28 07:10:31;;;;;;;;;13.67;11.00;;;;;5.14;65.88;102258.28;5119280;27;45534;-65
2023/03/28 07:12:56;;;;;;;;;11.33;9.33;;;;;5.24;65.30;102269.81;5119275;27;45469;-65
2023/03/28 07:15:22;;;;;;;;;11.00;7.33;;;;;5.30;65.50;102276.91;5119050;27;46480;-65
2023/03/28 07:17:47;;;;;;;;;12.00;9.67;;;;;5.38;65.14;102278.84;5118766;27;45486;-65
2023/03/28 07:20:13;;;;;;;;;11.33;10.33;;;;;5.33;65.08;102263.91;5119189;27;45504;-65
2023/03/28 07:22:39;;;;;;;;;13.67;12.00;;;;;5.43;64.42;102270.25;5119366;27;45243;-65
2023/03/28 07:25:06;;;;;;;;;13.00;8.33;;;;;5.49;65.22;102267.75;5118984;27;46633;-65
2023/03/28 07:27:32;;;;;;;;;12.50;11.00;;;;;5.62;64.45;102274.16;5118674;27;45433;-65
2023/03/28 07:29:57;;;;;;;;;16.33;9.33;;;;;5.62;64.62;102277.66;5118491;27;45316;-65
2023/03/28 07:32:23;;;;;;;;;12.67;8.67;;;;;5.68;65.35;102275.19;5119037;27;45355;-65
2023/03/28 07:34:48;;;;;;;;;12.00;8.00;;;;;5.82;65.13;102272.84;5117944;27;45449;-65
2023/03/28 07:37:13;;;;;;;;;12.67;9.00;;;;;5.97;64.40;102281.88;5118664;27;45476;-65
2023/03/28 07:39:42;;;;;;;;;12.00;8.67;;;;;6.00;63.93;102274.13;5118558;27;45321;-65
2023/03/28 07:42:11;;;;;;;;;15.67;9.67;;;;;5.98;63.51;102268.88;5118984;27;45449;-65
2023/03/28 07:44:37;;;;;;;;;11.67;7.00;;;;;6.08;63.42;102285.63;5117138;27;48191;-65
2023/03/28 07:47:03;;;;;;;;;14.33;8.67;;;;;5.93;64.19;102237.38;5117709;27;45394;-65
2023/03/28 07:49:29;;;;;;;;;9.33;8.00;;;;;6.26;63.33;102265.09;5118373;27;45448;-65
2023/03/28 07:51:55;;;;;;;;;8.33;7.00;;;;;6.26;63.44;102259.88;5118934;27;45557;-65
2023/03/28 07:54:20;;;;;;;;;7.33;6.33;;;;;6.13;62.71;102229.09;5118161;27;45407;-65
2023/03/28 07:56:47;;;;;;;;;10.00;9.00;;;;;6.49;62.18;102266.38;5118736;27;45313;-65
2023/03/28 07:59:13;;;;;;;;;14.67;7.00;;;;;6.58;61.83;102271.81;5118527;27;45421;-65
2023/03/28 08:01:40;;;;;;;;;11.33;8.00;;;;;6.56;61.88;102253.44;5118339;27;45390;-65
2023/03/28 08:04:06;;;;;;;;;10.67;9.33;;;;;6.65;61.62;102257.06;5118328;27;46574;-65
2023/03/28 08:06:33;;;;;;;;;16.00;9.00;;;;;6.75;62.18;102261.63;5118279;27;45447;-65
2023/03/28 08:08:59;;;;;;;;;8.00;8.00;;;;;6.89;61.42;102247.03;5118391;27;45324;-65
2023/03/28 08:11:26;;;;;;;;;8.67;8.67;;;;;7.20;60.65;102259.75;5118370;27;45310;-65
2023/03/28 08:13:51;;;;;;;;;11.00;8.00;;;;;7.40;59.87;102242.56;5117793;27;45447;-65
2023/03/28 08:16:16;;;;;;;;;6.67;6.33;;;;;7.71;60.29;102250.00;5118244;27;45485;-65
2023/03/28 08:18:42;;;;;;;;;12.33;6.33;;;;;7.83;59.51;102231.81;5118349;27;45366;-65
2023/03/28 08:21:07;;;;;;;;;9.00;6.67;;;;;8.09;58.20;102239.09;5118374;27;45454;-65
2023/03/28 08:23:32;;;;;;;;;11.00;8.00;;;;;8.36;57.74;102247.31;5117948;27;47026;-65
2023/03/28 08:26:03;;;;;;;;;14.33;9.67;;;;;8.51;57.65;102240.44;5117977;27;45425;-65
2023/03/28 08:28:30;;;;;;;;;14.67;10.00;;;;;8.59;57.85;102222.19;5118449;27;45425;-65
2023/03/28 08:30:56;;;;;;;;;11.00;8.33;;;;;8.78;56.83;102231.09;5118290;27;45554;-65
2023/03/28 08:33:21;;;;;;;;;8.00;8.00;;;;;8.72;55.84;102224.03;5117976;27;46191;-65
2023/03/28 08:35:47;;;;;;;;;8.33;6.00;;;;;8.82;56.71;102244.25;5117953;27;45402;-65
2023/03/28 08:38:12;;;;;;;;;18.00;11.67;;;;;8.62;55.54;102195.94;5117811;27;45299;-65
2023/03/28 08:40:44;;;;;;;;;10.33;9.67;;;;;8.99;55.53;102230.38;5118719;27;45318;-65
2023/03/28 08:43:19;;;;;;;;;7.67;7.67;;;;;9.07;55.35;102233.94;5121412;27;46562;-65
2023/03/28 08:45:44;;;;;;;;;12.67;7.67;;;;;9.17;54.57;102235.78;5120958;27;45433;-65
2023/03/28 08:48:10;;;;;;;;;6.00;4.00;;;;;9.29;55.39;102220.97;5121648;27;45430;-66
2023/03/28 08:50:42;;;;;;;;;8.33;5.33;;;;;9.34;54.77;102219.25;5121243;27;45414;-65
2023/03/28 08:53:33;;;;;;;;;6.33;5.00;;;;;9.39;54.59;102223.66;5121051;27;45742;-65
2023/03/28 08:56:01;;;;;;;;;6.67;6.00;;;;;9.41;53.97;102202.66;5121359;27;45435;-65
2023/03/28 08:58:34;;;;;;;;;10.33;8.00;;;;;9.52;53.67;102211.44;5121361;27;45338;-65
2023/03/28 09:01:02;;;;;;;;;7.67;7.00;;;;;9.69;53.55;102222.06;5121505;27;45517;-65
2023/03/28 09:03:35;;;;;;;;;8.00;8.00;;;;;9.64;53.61;102212.38;5121028;27;47392;-65
2023/03/28 09:06:24;;;;;;;;;9.33;7.00;;;;;9.74;53.66;102228.25;5120497;27;45489;-66
2023/03/28 09:08:55;;;;;;;;;9.67;6.33;;;;;9.87;53.91;102213.38;5102873;27;45320;-66
2023/03/28 09:11:39;;;;;;;;;11.67;6.67;;;;;10.09;53.66;102214.34;5121451;27;45220;-66
2023/03/28 09:14:36;;;;;;;;;3.25;3.25;;;;;10.15;51.96;102202.06;5120729;27;46126;-66
2023/03/28 09:17:01;;;;;;;;;7.67;7.67;;;;;10.24;51.07;102216.13;5120866;27;45265;-66
2023/03/28 09:19:44;;;;;;;;;4.67;4.00;;;;;10.26;50.99;102214.34;5120976;27;45504;-66
2023/03/28 09:22:26;;;;;;;;;10.00;7.67;;;;;10.32;51.55;102208.22;5120881;27;45367;-66
2023/03/28 09:25:23;;;;;;;;;13.00;9.33;;;;;10.47;50.76;102207.44;5120428;27;45353;-66
2023/03/28 09:28:10;;;;;;;;;6.50;6.25;;;;;10.55;51.64;102200.41;5036508;28;45328;-66
2023/03/28 09:30:45;;;;;;;;;5.00;5.00;;;;;10.57;51.32;102200.41;5037162;28;45675;-66
2023/03/28 09:33:20;;;;;;;;;5.33;5.00;;;;;10.74;51.57;102197.78;5037296;28;45643;-66
2023/03/28 09:35:47;;;;;;;;;6.33;5.33;;;;;10.95;50.71;102196.91;5036699;28;46108;-66
2023/03/28 09:38:21;;;;;;;;;9.00;7.67;;;;;10.91;50.07;102187.25;5056065;28;45378;-66
2023/03/28 09:40:51;;;;;;;;;5.00;5.00;;;;;10.97;50.08;102187.22;5057201;28;45386;-66
2023/03/28 09:43:22;;;;;;;;;8.00;4.50;;;;;11.19;49.52;102193.34;5057518;28;45419;-66
2023/03/28 09:45:58;;;;;;;;;6.33;5.00;;;;;11.50;49.54;102194.16;5055617;28;46213;-65
2023/03/28 09:48:27;;;;;;;;;6.00;6.00;;;;;11.63;46.51;102178.25;5056129;28;45522;-66
2023/03/28 09:50:54;;;;;;;;;9.00;7.00;;;;;11.77;47.38;102183.47;5057005;28;46447;-65
2023/03/28 09:53:23;;;;;;;;;6.00;5.75;;;;;12.23;48.60;102177.09;5056702;28;45461;-66
2023/03/28 09:55:50;;;;;;;;;5.50;4.00;;;;;12.67;47.00;102146.81;5055198;28;46420;-66
2023/03/28 09:58:16;;;;;;;;;9.25;6.00;;;;;13.29;46.28;102178.81;5056471;28;45444;-66
2023/03/28 10:00:47;;;;;;;;;6.00;4.50;;;;;13.55;45.94;102161.81;5056460;28;45398;-66
2023/03/28 10:03:29;;;;;;;;;10.00;7.33;;;;;13.66;45.28;102166.94;5091653;27;45495;-66
2023/03/28 10:05:59;;;;;;;;;8.00;6.00;;;;;13.78;44.28;102166.78;5140577;27;45532;-66
2023/03/28 10:08:31;;;;;;;;;6.00;5.50;;;;;13.86;45.10;102162.25;5140980;27;45326;-66
2023/03/28 10:11:14;;;;;;;;;7.67;6.67;;;;;13.84;43.58;102150.84;5140901;27;45437;-66
2023/03/28 10:13:48;;;;;;;;;8.67;8.67;;;;;13.81;44.78;102140.28;5141051;27;45262;-66
2023/03/28 10:16:38;;;;;;;;;4.00;4.00;;;;;13.84;45.46;102139.34;5140416;27;45429;-66
2023/03/28 10:19:03;;;;;;;;;7.33;5.33;;;;;13.80;44.00;102142.97;5140261;27;45382;-66
2023/03/28 10:21:30;;;;;;;;;5.00;4.00;;;;;13.96;44.71;102154.22;5140981;27;45431;-66
2023/03/28 10:24:01;;;;;;;;;4.50;4.50;;;;;14.17;44.51;102148.56;5141065;27;45380;-66
2023/03/28 10:26:27;;;;;;;;;7.33;5.00;;;;;14.44;44.74;102130.50;5121325;27;45879;-66
2023/03/28 10:28:56;;;;;;;;;7.50;5.00;;;;;14.77;43.02;102134.38;5140566;27;45288;-66
2023/03/28 10:31:28;;;;;;;;;5.25;5.25;;;;;15.22;42.43;102128.22;5140012;27;45524;-66
2023/03/28 10:33:55;;;;;;;;;7.00;7.00;;;;;15.52;41.36;102119.66;5140892;27;45528;-66
2023/03/28 10:36:52;;;;;;;;;17.33;12.33;;;;;15.83;41.16;102115.47;5140426;27;46451;-66
2023/03/28 10:39:22;;;;;;;;;7.50;6.25;;;;;16.07;41.00;102109.59;5056352;28;45524;-66
2023/03/28 10:42:00;;;;;;;;;8.33;7.00;;;;;15.93;39.82;102107.25;5056119;28;45454;-66
2023/03/28 10:44:30;;;;;;;;;7.75;7.25;;;;;15.80;39.14;102117.28;5056480;28;45413;-66
2023/03/28 10:47:02;;;;;;;;;5.00;4.00;;;;;15.70;40.25;102110.41;5055919;28;45557;-66
2023/03/28 10:49:41;;;;;;;;;6.50;4.75;;;;;15.53;39.68;102108.16;5068444;28;45460;-66
2023/03/28 10:52:21;;;;;;;;;5.50;5.50;;;;;15.25;40.46;102101.63;5076271;28;45339;-66
2023/03/28 10:54:46;;;;;;;;;8.00;7.67;;;;;15.22;40.62;102095.50;5076508;28;45528;-66
2023/03/28 10:57:24;;;;;;;;;5.00;3.50;;;;;15.02;40.41;102077.34;5076145;28;45440;-66
2023/03/28 11:00:22;;;;;;;;;5.75;5.75;;;;;14.83;41.10;102077.72;5075977;28;45453;-66
2023/03/28 11:03:00;;;;;;;;;6.00;5.00;;;;;14.60;41.29;102086.91;5076196;28;45345;-66
2023/03/28 11:05:37;;;;;;;;;5.00;4.50;;;;;14.32;41.26;102062.69;5075955;28;45432;-66
2023/03/28 11:08:08;;;;;;;;;6.75;6.50;;;;;14.36;42.00;102084.69;5075921;28;45410;-66
2023/03/28 11:10:58;;;;;;;;;7.00;5.00;;;;;14.24;42.38;102085.78;5075934;28;45438;-66
2023/03/28 11:13:38;;;;;;;;;10.33;9.67;;;;;14.16;42.75;102085.91;5076220;28;45454;-66
2023/03/28 11:16:15;;;;;;;;;7.50;4.50;;;;;14.01;42.87;102078.19;5118108;27;45368;-66
2023/03/28 11:18:56;;;;;;;;;9.33;6.00;;;;;13.98;43.04;102076.47;5118913;27;46102;-66
2023/03/28 11:21:28;;;;;;;;;6.00;6.00;;;;;14.02;43.49;102072.88;5118982;27;45368;-65
2023/03/28 11:24:22;;;;;;;;;9.75;5.25;;;;;14.12;42.84;102073.63;5119252;27;45216;-66
2023/03/28 11:27:18;;;;;;;;;5.75;4.00;;;;;14.14;42.89;102065.66;5119366;27;45419;-66
2023/03/28 11:29:48;;;;;;;;;7.00;5.50;;;;;13.96;43.07;102043.00;5118945;27;46484;-66
2023/03/28 11:32:16;;;;;;;;;5.75;5.75;;;;;13.97;42.82;102058.84;5118824;27;45336;-66
2023/03/28 11:34:51;;;;;;;;;6.75;6.00;;;;;13.86;43.98;102051.06;5119005;27;45224;-66
2023/03/28 11:37:35;;;;;;;;;12.50;4.25;;;;;13.90;43.68;102047.47;5100489;27;45438;-66
2023/03/28 11:40:25;;;;;;;;;9.67;5.33;;;;;13.97;44.05;102044.72;5118750;27;45417;-66